Dades meteomassalio
Diari Summary for Setembre 8, 2017 Units:  English    Metric   Both
« Previous Day
Next Day »
Diari Semanal Mensual Anual Personalitzat
  Maxima: Minima: Mijana:
Temperatura: TemperatureC °F 10.0 °F 19.1 °F
Rosada: DewpointC °F 1.2 °F 8.2 °F
Humitat: Humidity % 23 % 53 %
Velocitat del vent: WindSpeedKMH mph 0.0 mph 7.8 mph
Racha vent: WindSpeedGustKMH mph - -
Vent:- - SSW
Pressio: PressurehPa in 1010.7 in -
Pluja: 0.0 in    
Historical Graphs
 
 
Tabular Data for Setembre 8, 2017
Time Temperature Dew Point Pressure Wind Wind Speed Wind Gust Humidity Rainfall Rate (Hourly) solar Conditions
TemperatureC °F DewpointC °F PressurehPa in Calm     Humidity % HourlyPrecipMM in SolarRadiationWatts/m^2 W/m2 Conditions
00:00 19.4 °F 9.9 °F 1019.2 in SSW 31.5 mph 31.5 mph 54 % 0.0 in 0.0 W/m2 CLR
00:05 19.4 °F 9.9 °F 1019.2 in SSW 25.9 mph 25.9 mph 54 % 0.0 in 0.0 W/m2 CLR
00:10 19.4 °F 9.9 °F 1019.2 in SSW 30.6 mph 30.6 mph 54 % 0.0 in 0.0 W/m2 CLR
00:15 19.4 °F 9.9 °F 1019.2 in SW 27.8 mph 27.8 mph 54 % 0.0 in 0.0 W/m2 CLR
00:20 19.4 °F 9.9 °F 1019.2 in SSW 27.4 mph 27.4 mph 54 % 0.0 in 0.0 W/m2 CLR
00:25 19.4 °F 9.9 °F 1019.2 in SSW 33.3 mph 33.3 mph 54 % 0.0 in 0.0 W/m2 CLR
00:30 19.4 °F 9.9 °F 1018.8 in SSW 27.8 mph 27.8 mph 54 % 0.0 in 0.0 W/m2 CLR
00:35 19.4 °F 10.2 °F 1018.8 in SSW 38.9 mph 38.9 mph 55 % 0.0 in 0.0 W/m2 CLR
00:40 19.4 °F 10.2 °F 1018.8 in South 37.0 mph 37.0 mph 55 % 0.0 in 0.0 W/m2 CLR
00:45 18.9 °F 9.7 °F 1018.8 in SSW 31.5 mph 31.5 mph 55 % 0.0 in 0.0 W/m2 CLR
00:50 18.9 °F 9.9 °F 1018.8 in SSW 33.3 mph 33.3 mph 56 % 0.0 in 0.0 W/m2 CLR
00:55 18.9 °F 9.9 °F 1018.8 in SSW 35.2 mph 35.2 mph 56 % 0.0 in 0.0 W/m2 CLR
01:00 18.9 °F 9.9 °F 1018.8 in SW 31.5 mph 31.5 mph 56 % 0.0 in 0.0 W/m2 CLR
01:05 18.9 °F 9.9 °F 1018.8 in SW 33.8 mph 33.8 mph 56 % 0.0 in 0.0 W/m2 CLR
01:10 18.9 °F 10.2 °F 1018.8 in SW 44.4 mph 44.4 mph 57 % 0.0 in 0.0 W/m2 CLR
01:15 18.9 °F 10.4 °F 1018.8 in SSW 31.5 mph 31.5 mph 58 % 0.0 in 0.0 W/m2 CLR
01:20 18.3 °F 9.9 °F 1018.5 in SSW 42.6 mph 42.6 mph 58 % 0.0 in 0.0 W/m2 CLR
01:25 18.3 °F 9.9 °F 1018.8 in SW 35.4 mph 35.4 mph 58 % 0.0 in 0.0 W/m2 CLR
01:30 18.3 °F 9.9 °F 1018.8 in SSW 35.2 mph 35.2 mph 58 % 0.0 in 0.0 W/m2 CLR
01:35 18.3 °F 9.9 °F 1018.8 in SSW 31.5 mph 31.5 mph 58 % 0.0 in 0.0 W/m2 CLR
01:40 18.3 °F 10.2 °F 1018.8 in SSW 24.1 mph 24.1 mph 59 % 0.0 in 0.0 W/m2 CLR
01:46 18.3 °F 10.2 °F 1018.8 in SSW 27.8 mph 27.8 mph 59 % 0.0 in 0.0 W/m2 CLR
01:51 18.3 °F 10.4 °F 1018.8 in SW 33.3 mph 33.3 mph 60 % 0.0 in 0.0 W/m2 CLR
01:56 17.8 °F 9.9 °F 1018.8 in SW 37.0 mph 37.0 mph 60 % 0.0 in 0.0 W/m2 CLR
02:01 17.8 °F 9.9 °F 1018.8 in SSW 31.5 mph 31.5 mph 60 % 0.0 in 0.0 W/m2 CLR
02:11 17.8 °F 10.2 °F 1018.8 in SW 27.8 mph 27.8 mph 61 % 0.0 in 0.0 W/m2 CLR
02:16 17.8 °F 10.2 °F 1018.8 in SSW 29.0 mph 29.0 mph 61 % 0.0 in 0.0 W/m2 CLR
02:21 17.2 °F 9.6 °F 1018.8 in SW 31.5 mph 31.5 mph 61 % 0.0 in 0.0 W/m2 CLR
02:26 17.2 °F 9.6 °F 1018.8 in SW 35.2 mph 35.2 mph 61 % 0.0 in 0.0 W/m2 CLR
02:31 17.2 °F 9.6 °F 1018.8 in SW 35.2 mph 35.2 mph 61 % 0.0 in 0.0 W/m2 CLR
02:36 17.8 °F 10.2 °F 1018.8 in SW 40.7 mph 40.7 mph 61 % 0.0 in 0.0 W/m2 CLR
02:41 17.8 °F 10.2 °F 1018.8 in SSW 29.6 mph 29.6 mph 61 % 0.0 in 0.0 W/m2 CLR
02:46 17.2 °F 9.6 °F 1018.8 in SW 22.5 mph 22.5 mph 61 % 0.0 in 0.0 W/m2 CLR
02:51 17.2 °F 9.9 °F 1018.8 in SW 24.1 mph 24.1 mph 62 % 0.0 in 0.0 W/m2 CLR
02:56 17.2 °F 9.9 °F 1018.8 in South 18.5 mph 18.5 mph 62 % 0.0 in 0.0 W/m2 CLR
03:01 17.2 °F 9.9 °F 1018.8 in SSW 16.7 mph 16.7 mph 62 % 0.0 in 0.0 W/m2 CLR
03:06 17.2 °F 9.9 °F 1018.8 in South 3.7 mph 5.1 mph 62 % 0.0 in 0.0 W/m2 CLR
03:11 16.7 °F 9.3 °F 1018.8 in South 11.1 mph 11.1 mph 62 % 0.0 in 0.0 W/m2 CLR
03:16 17.2 °F 9.9 °F 1019.2 in SW 12.9 mph 12.9 mph 62 % 0.0 in 0.0 W/m2 CLR
03:21 16.7 °F 9.6 °F 1019.2 in SSW 11.1 mph 11.1 mph 63 % 0.0 in 0.0 W/m2 CLR
03:26 16.7 °F 9.6 °F 1019.2 in SW 18.5 mph 18.5 mph 63 % 0.0 in 0.0 W/m2 CLR
03:31 16.7 °F 9.6 °F 1019.2 in South 13.0 mph 13.0 mph 63 % 0.0 in 0.0 W/m2 CLR
03:36 16.7 °F 9.6 °F 1019.2 in SSW 14.8 mph 14.8 mph 63 % 0.0 in 0.0 W/m2 CLR
03:41 16.1 °F 9.1 °F 1019.2 in SSW 7.4 mph 7.4 mph 63 % 0.0 in 0.0 W/m2 CLR
03:46 16.1 °F 9.1 °F 1019.2 in SSW 16.7 mph 16.7 mph 63 % 0.0 in 0.0 W/m2 CLR
03:51 16.1 °F 9.1 °F 1019.2 in SSW 13.0 mph 13.0 mph 63 % 0.0 in 0.0 W/m2 CLR
03:56 16.1 °F 9.1 °F 1018.8 in SW 13.0 mph 13.0 mph 63 % 0.0 in 0.0 W/m2 CLR
04:01 15.6 °F 8.8 °F 1018.8 in SW 22.2 mph 22.2 mph 64 % 0.0 in 0.0 W/m2 CLR
04:07 16.1 °F 9.3 °F 1018.8 in WSW 13.0 mph 13.0 mph 64 % 0.0 in 0.0 W/m2 CLR
04:11 16.1 °F 9.3 °F 1018.8 in Calm     64 % 0.0 in 0.0 W/m2 CLR
04:12 16.1 °F 9.3 °F 1018.8 in Calm     64 % 0.0 in 0.0 W/m2 CLR
04:17 15.6 °F 8.8 °F 1018.8 in Calm     64 % 0.0 in 0.0 W/m2 CLR
04:22 15.0 °F 8.2 °F 1018.8 in Calm     64 % 0.0 in 0.0 W/m2 CLR
04:27 14.4 °F 8.2 °F 1018.8 in Calm     66 % 0.0 in 0.0 W/m2 CLR
04:32 13.9 °F 7.6 °F 1018.8 in Calm     66 % 0.0 in 0.0 W/m2 CLR
04:37 13.3 °F 7.1 °F 1018.8 in Calm     66 % 0.0 in 0.0 W/m2 CLR
04:42 13.3 °F 7.6 °F 1018.8 in Calm     68 % 0.0 in 0.0 W/m2 CLR
04:47 12.8 °F 7.2 °F 1018.8 in Calm     69 % 0.0 in 0.0 W/m2 CLR
04:52 12.8 °F 7.0 °F 1018.8 in SW 20.4 mph 20.4 mph 68 % 0.0 in 0.0 W/m2 CLR
04:57 12.2 °F 6.3 °F 1018.8 in SSW 9.3 mph 9.3 mph 67 % 0.0 in 0.0 W/m2 CLR
05:02 12.2 °F 6.3 °F 1018.8 in Calm     67 % 0.0 in 0.0 W/m2 CLR
05:07 12.2 °F 6.5 °F 1018.5 in South 5.6 mph 5.6 mph 68 % 0.0 in 0.0 W/m2 CLR
05:12 12.8 °F 7.0 °F 1018.5 in Calm     68 % 0.0 in 0.0 W/m2 CLR
05:18 12.8 °F 7.2 °F 1018.5 in South 5.6 mph 5.6 mph 69 % 0.0 in 0.0 W/m2 CLR
05:23 12.2 °F 6.7 °F 1018.5 in SSE 7.4 mph 7.4 mph 69 % 0.0 in 0.0 W/m2 CLR
05:25 12.2 °F 6.7 °F 1018.5 in SSE 8.0 mph 8.0 mph 69 % 0.0 in 0.0 W/m2 CLR
05:29 12.2 °F 6.9 °F 1018.5 in SSW 8.0 mph 8.0 mph 70 % 0.0 in 0.0 W/m2 CLR
05:30 12.2 °F 6.9 °F 1018.5 in South 11.3 mph 11.3 mph 70 % 0.0 in 0.0 W/m2 CLR
05:35 12.2 °F 6.9 °F 1018.5 in South 11.1 mph 11.1 mph 70 % 0.0 in 0.0 W/m2 CLR
05:40 12.2 °F 6.9 °F 1018.5 in South 9.3 mph 9.3 mph 70 % 0.0 in 0.0 W/m2 CLR
05:45 12.2 °F 6.9 °F 1018.5 in SSE 9.3 mph 9.3 mph 70 % 0.0 in 0.0 W/m2 CLR
05:50 12.2 °F 7.1 °F 1018.5 in SSE 5.6 mph 5.6 mph 71 % 0.0 in 0.0 W/m2 CLR
05:55 12.2 °F 7.1 °F 1018.5 in South 9.3 mph 9.3 mph 71 % 0.0 in 0.0 W/m2 CLR
06:00 12.2 °F 7.1 °F 1018.5 in SSE 9.7 mph 9.7 mph 71 % 0.0 in 0.0 W/m2 CLR
06:05 12.2 °F 7.1 °F 1018.5 in South 7.4 mph 7.4 mph 71 % 0.0 in 0.0 W/m2 CLR
06:10 12.8 °F 7.8 °F 1018.5 in SSE 14.8 mph 14.8 mph 72 % 0.0 in 0.0 W/m2 CLR
06:15 12.8 °F 8.1 °F 1018.5 in SSE 11.3 mph 11.3 mph 73 % 0.0 in 0.0 W/m2 CLR
06:20 12.8 °F 8.3 °F 1018.5 in SSE 11.1 mph 11.1 mph 74 % 0.0 in 0.0 W/m2 CLR
06:25 12.2 °F 7.7 °F 1018.5 in Calm     74 % 0.0 in 0.0 W/m2 CLR
06:26 12.2 °F 7.7 °F 1018.5 in Calm     74 % 0.0 in 0.0 W/m2 CLR
06:31 12.2 °F 8.1 °F 1018.5 in Calm     76 % 0.0 in 0.0 W/m2 CLR
06:36 11.7 °F 7.6 °F 1018.5 in Calm     76 % 0.0 in 0.0 W/m2 CLR
06:41 11.7 °F 7.8 °F 1018.5 in Calm     77 % 0.0 in 0.0 W/m2 CLR
06:46 11.1 °F 7.4 °F 1018.5 in Calm     78 % 0.0 in 0.0 W/m2 CLR
06:51 11.1 °F 7.4 °F 1018.5 in Calm     78 % 0.0 in 0.0 W/m2 CLR
06:56 11.1 °F 7.4 °F 1018.5 in Calm     78 % 0.0 in 0.0 W/m2 CLR
07:01 11.1 °F 7.6 °F 1018.5 in Calm     79 % 0.0 in 0.0 W/m2 CLR
07:06 11.1 °F 7.6 °F 1018.2 in Calm     79 % 0.0 in 0.0 W/m2 CLR
07:11 10.6 °F 7.1 °F 1018.5 in Calm     79 % 0.0 in 0.0 W/m2 CLR
07:16 10.6 °F 6.9 °F 1018.2 in Calm     78 % 0.0 in 0.0 W/m2 CLR
07:21 10.0 °F 6.2 °F 1018.2 in Calm     77 % 0.0 in 0.0 W/m2 CLR
07:26 10.0 °F 5.9 °F 1018.5 in Calm     76 % 0.0 in 0.0 W/m2 OVC
07:31 10.6 °F 6.5 °F 1018.5 in Calm     76 % 0.0 in 0.0 W/m2 OVC
07:36 10.6 °F 6.7 °F 1018.2 in Calm     77 % 0.0 in 5.0 W/m2 OVC
07:41 10.6 °F 6.5 °F 1018.5 in Calm     76 % 0.0 in 11.0 W/m2 BKN
07:46 10.6 °F 6.5 °F 1018.5 in Calm     76 % 0.0 in 16.0 W/m2 BKN
07:51 10.6 °F 6.5 °F 1018.2 in Calm     76 % 0.0 in 21.0 W/m2 BKN
07:56 10.6 °F 6.5 °F 1018.5 in Calm     76 % 0.0 in 28.0 W/m2 BKN
08:01 10.6 °F 6.5 °F 1018.2 in Calm     76 % 0.0 in 35.0 W/m2 BKN
08:06 10.6 °F 6.5 °F 1018.2 in Calm     76 % 0.0 in 42.0 W/m2 BKN
08:11 10.6 °F 6.5 °F 1018.2 in Calm     76 % 0.0 in 47.0 W/m2 SCT
08:16 10.6 °F 6.3 °F 1018.2 in Calm     75 % 0.0 in 56.0 W/m2 SCT
08:21 11.1 °F 6.8 °F 1018.2 in Calm     75 % 0.0 in 69.0 W/m2 FEW
08:26 11.7 °F 7.4 °F 1018.2 in Calm     75 % 0.0 in 77.0 W/m2 FEW
08:31 12.2 °F 7.9 °F 1018.2 in Calm     75 % 0.0 in 86.0 W/m2 CLR
08:36 12.2 °F 7.7 °F 1018.5 in Calm     74 % 0.0 in 93.0 W/m2 CLR
08:41 12.8 °F 8.3 °F 1018.5 in South 9.3 mph 9.3 mph 74 % 0.0 in 79.0 W/m2 FEW
08:46 13.3 °F 8.8 °F 1018.5 in SSW 7.4 mph 7.4 mph 74 % 0.0 in 83.0 W/m2 FEW
08:51 13.3 °F 8.6 °F 1018.5 in South 7.4 mph 7.4 mph 73 % 0.0 in 146.0 W/m2 CLR
09:01 14.4 °F 9.7 °F 1018.5 in South 5.6 mph 5.6 mph 73 % 0.0 in 178.0 W/m2 CLR
09:06 14.4 °F 9.4 °F 1018.5 in South 9.3 mph 9.3 mph 72 % 0.0 in 186.0 W/m2 CLR
09:11 15.0 °F 9.8 °F 1018.5 in South 5.6 mph 5.6 mph 71 % 0.0 in 199.0 W/m2 CLR
09:16 15.0 °F 9.8 °F 1018.5 in South 9.3 mph 9.3 mph 71 % 0.0 in 213.0 W/m2 CLR
09:21 15.6 °F 10.1 °F 1018.5 in South 5.6 mph 5.6 mph 70 % 0.0 in 230.0 W/m2 CLR
09:26 15.6 °F 10.1 °F 1018.5 in South 5.6 mph 5.6 mph 70 % 0.0 in 248.0 W/m2 CLR
09:31 16.1 °F 10.6 °F 1018.5 in South 5.6 mph 5.6 mph 70 % 0.0 in 267.0 W/m2 CLR
09:36 16.1 °F 10.2 °F 1018.5 in South 7.4 mph 7.4 mph 68 % 0.0 in 276.0 W/m2 CLR
09:41 16.1 °F 10.0 °F 1018.5 in SW 9.3 mph 9.3 mph 67 % 0.0 in 299.0 W/m2 CLR
09:46 16.7 °F 10.3 °F 1018.5 in SSW 11.1 mph 11.1 mph 66 % 0.0 in 320.0 W/m2 CLR
09:51 16.7 °F 10.1 °F 1018.5 in SW 5.6 mph 5.6 mph 65 % 0.0 in 327.0 W/m2 CLR
09:52 16.7 °F 10.1 °F 1018.5 in SW 5.6 mph 5.6 mph 65 % 0.0 in 327.0 W/m2 CLR
09:57 17.2 °F 10.3 °F 1018.5 in South 11.1 mph 11.1 mph 64 % 0.0 in 346.0 W/m2 CLR
10:02 17.2 °F 10.1 °F 1018.5 in South 11.1 mph 11.1 mph 63 % 0.0 in 360.0 W/m2 CLR
10:07 17.2 °F 10.3 °F 1018.5 in SSW 7.4 mph 7.4 mph 64 % 0.0 in 373.0 W/m2 CLR
10:12 17.8 °F 10.6 °F 1018.5 in SSE 13.0 mph 13.0 mph 63 % 0.0 in 385.0 W/m2 CLR
10:17 17.8 °F 10.4 °F 1018.5 in SSW 9.3 mph 9.3 mph 62 % 0.0 in 404.0 W/m2 CLR
10:22 17.8 °F 10.2 °F 1018.5 in South 5.6 mph 5.6 mph 61 % 0.0 in 424.0 W/m2 CLR
10:27 17.8 °F 9.9 °F 1018.5 in SW 7.4 mph 7.4 mph 60 % 0.0 in 446.0 W/m2 CLR
10:32 17.8 °F 9.9 °F 1018.5 in SW 13.0 mph 13.0 mph 60 % 0.0 in 454.0 W/m2 CLR
10:37 18.3 °F 10.4 °F 1018.5 in SW 16.7 mph 16.7 mph 60 % 0.0 in 473.0 W/m2 CLR
10:42 18.3 °F 10.4 °F 1018.5 in SW 13.0 mph 13.0 mph 60 % 0.0 in 485.0 W/m2 CLR
10:47 18.9 °F 10.7 °F 1018.5 in WSW 11.1 mph 11.1 mph 59 % 0.0 in 497.0 W/m2 CLR
10:52 18.9 °F 10.7 °F 1018.5 in SW 8.0 mph 8.2 mph 59 % 0.0 in 512.0 W/m2 CLR
10:57 18.9 °F 10.4 °F 1018.5 in WSW 12.9 mph 12.9 mph 58 % 0.0 in 519.0 W/m2 CLR
11:02 18.9 °F 10.2 °F 1018.5 in WSW 3.7 mph 3.7 mph 57 % 0.0 in 533.0 W/m2 CLR
11:07 18.9 °F 9.9 °F 1018.5 in Calm     56 % 0.0 in 541.0 W/m2 CLR
11:12 18.9 °F 9.9 °F 1018.2 in SW 8.0 mph 8.0 mph 56 % 0.0 in 554.0 W/m2 CLR
11:17 19.4 °F 10.2 °F 1018.2 in WSW 11.1 mph 11.1 mph 55 % 0.0 in 566.0 W/m2 CLR
11:22 19.4 °F 10.2 °F 1018.2 in West 3.7 mph 3.7 mph 55 % 0.0 in 577.0 W/m2 CLR
11:27 20.0 °F 10.4 °F 1018.2 in Calm     54 % 0.0 in 589.0 W/m2 CLR
11:32 20.0 °F 10.7 °F 1018.2 in WSW 11.3 mph 11.3 mph 55 % 0.0 in 599.0 W/m2 CLR
11:37 20.6 °F 10.9 °F 1018.2 in WSW 11.3 mph 11.3 mph 54 % 0.0 in 610.0 W/m2 CLR
11:42 20.6 °F 10.7 °F 1018.2 in Calm     53 % 0.0 in 622.0 W/m2 CLR
11:47 21.1 °F 11.2 °F 1018.2 in West 9.3 mph 9.3 mph 53 % 0.0 in 631.0 W/m2 CLR
11:52 21.1 °F 10.9 °F 1018.2 in Calm     52 % 0.0 in 640.0 W/m2 CLR
11:57 21.1 °F 10.6 °F 1018.2 in WSW 6.4 mph 6.4 mph 51 % 0.0 in 647.0 W/m2 CLR
12:02 21.7 °F 11.1 °F 1017.8 in Calm     51 % 0.0 in 654.0 W/m2 CLR
12:07 21.7 °F 11.1 °F 1017.8 in SW 9.3 mph 9.3 mph 51 % 0.0 in 663.0 W/m2 CLR
12:12 21.7 °F 10.5 °F 1017.8 in South 3.7 mph 3.7 mph 49 % 0.0 in 671.0 W/m2 CLR
12:17 21.7 °F 11.1 °F 1017.8 in Calm     51 % 0.0 in 684.0 W/m2 CLR
12:22 21.7 °F 10.8 °F 1017.5 in WSW 9.3 mph 9.3 mph 50 % 0.0 in 693.0 W/m2 CLR
12:27 22.2 °F 10.7 °F 1017.5 in Calm     48 % 0.0 in 701.0 W/m2 CLR
12:32 22.2 °F 10.7 °F 1017.5 in WSW 6.4 mph 6.4 mph 48 % 0.0 in 708.0 W/m2 CLR
12:37 22.8 °F 11.2 °F 1017.5 in Calm     48 % 0.0 in 715.0 W/m2 CLR
12:42 22.2 °F 10.7 °F 1017.5 in WSW 11.1 mph 11.1 mph 48 % 0.0 in 719.0 W/m2 CLR
12:52 22.2 °F 10.4 °F 1017.2 in NW 5.6 mph 5.6 mph 47 % 0.0 in 728.0 W/m2 CLR
12:57 22.8 °F 10.6 °F 1017.2 in WNW 3.7 mph 3.7 mph 46 % 0.0 in 740.0 W/m2 CLR
13:02 22.8 °F 10.6 °F 1016.8 in Calm     46 % 0.0 in 749.0 W/m2 CLR
13:07 22.8 °F 10.6 °F 1016.8 in West 9.3 mph 9.3 mph 46 % 0.0 in 756.0 W/m2 CLR
13:12 22.8 °F 9.9 °F 1016.8 in West 4.8 mph 4.8 mph 44 % 0.0 in 756.0 W/m2 CLR
13:17 22.8 °F 9.9 °F 1016.8 in Calm     44 % 0.0 in 761.0 W/m2 CLR
13:22 23.3 °F 10.7 °F 1016.8 in West 9.3 mph 9.3 mph 45 % 0.0 in 766.0 W/m2 CLR
13:27 23.9 °F 10.2 °F 1016.8 in WNW 13.0 mph 13.0 mph 42 % 0.0 in 770.0 W/m2 CLR
13:32 23.9 °F 10.2 °F 1016.5 in NW 9.3 mph 9.3 mph 42 % 0.0 in 772.0 W/m2 CLR
13:37 23.9 °F 10.2 °F 1016.5 in West 11.1 mph 11.1 mph 42 % 0.0 in 773.0 W/m2 CLR
13:42 23.9 °F 9.8 °F 1016.5 in Calm     41 % 0.0 in 784.0 W/m2 CLR
13:47 23.9 °F 9.8 °F 1016.5 in West 9.3 mph 9.3 mph 41 % 0.0 in 784.0 W/m2 CLR
13:52 23.9 °F 9.4 °F 1016.5 in WNW 7.4 mph 7.4 mph 40 % 0.0 in 788.0 W/m2 CLR
13:57 23.9 °F 9.1 °F 1016.5 in WNW 5.6 mph 5.6 mph 39 % 0.0 in 788.0 W/m2 CLR
14:02 24.4 °F 9.2 °F 1016.5 in Calm     38 % 0.0 in 791.0 W/m2 CLR
14:07 25.0 °F 9.7 °F 1016.1 in WNW 3.7 mph 3.7 mph 38 % 0.0 in 791.0 W/m2 CLR
14:12 24.4 °F 8.8 °F 1016.1 in NW 7.4 mph 7.4 mph 37 % 0.0 in 786.0 W/m2 CLR
14:17 24.4 °F 8.0 °F 1016.1 in WNW 9.3 mph 9.3 mph 35 % 0.0 in 786.0 W/m2 CLR
14:22 25.0 °F 8.4 °F 1015.8 in Calm     35 % 0.0 in 784.0 W/m2 CLR
14:27 25.0 °F 8.1 °F 1015.8 in NW 6.4 mph 6.4 mph 34 % 0.0 in 782.0 W/m2 CLR
14:32 25.0 °F 8.1 °F 1015.8 in NW 9.3 mph 9.3 mph 34 % 0.0 in 777.0 W/m2 CLR
14:37 25.6 °F 7.6 °F 1015.8 in WSW 1.9 mph   32 % 0.0 in 775.0 W/m2 CLR
14:42 25.6 °F 7.2 °F 1015.8 in Calm     31 % 0.0 in 772.0 W/m2 CLR
14:47 26.1 °F 7.7 °F 1015.5 in NNW 3.7 mph   31 % 0.0 in 772.0 W/m2 CLR
14:52 26.1 °F 7.7 °F 1015.5 in Calm     31 % 0.0 in 765.0 W/m2 CLR
14:57 25.6 °F 8.1 °F 1015.5 in Calm     33 % 0.0 in 759.0 W/m2 CLR
15:02 25.6 °F 7.6 °F 1015.5 in North 3.7 mph 3.7 mph 32 % 0.0 in 752.0 W/m2 CLR
15:07 26.1 °F 8.1 °F 1015.1 in NW 7.4 mph 7.4 mph 32 % 0.0 in 747.0 W/m2 CLR
15:12 26.1 °F 8.1 °F 1015.1 in North 13.0 mph 13.0 mph 32 % 0.0 in 742.0 W/m2 CLR
15:17 25.6 °F 7.6 °F 1015.1 in North 3.7 mph 3.7 mph 32 % 0.0 in 735.0 W/m2 CLR
15:22 25.6 °F 7.2 °F 1015.1 in North 5.6 mph 5.6 mph 31 % 0.0 in 726.0 W/m2 CLR
15:27 25.6 °F 6.7 °F 1014.8 in Calm     30 % 0.0 in 721.0 W/m2 CLR
15:32 26.7 °F 8.1 °F 1014.8 in NNE 8.0 mph 8.0 mph 31 % 0.0 in 712.0 W/m2 CLR
15:38 26.1 °F 7.2 °F 1014.8 in NNW 5.6 mph 5.6 mph 30 % 0.0 in 708.0 W/m2 CLR
15:42 26.1 °F 7.2 °F 1014.8 in NW 6.4 mph 6.4 mph 30 % 0.0 in 701.0 W/m2 CLR
15:48 26.1 °F 6.7 °F 1014.4 in NNW 5.6 mph 5.6 mph 29 % 0.0 in 687.0 W/m2 CLR
15:53 26.7 °F 6.7 °F 1014.4 in NE 3.7 mph 3.7 mph 28 % 0.0 in 677.0 W/m2 CLR
15:58 26.7 °F 7.2 °F 1014.4 in NNW 14.8 mph 14.8 mph 29 % 0.0 in 670.0 W/m2 CLR
16:03 26.7 °F 6.7 °F 1014.4 in NNE 5.6 mph 5.6 mph 28 % 0.0 in 663.0 W/m2 CLR
16:08 26.7 °F 6.7 °F 1014.1 in NW 5.6 mph 5.6 mph 28 % 0.0 in 652.0 W/m2 CLR
16:13 26.7 °F 6.1 °F 1014.1 in NE 5.6 mph   27 % 0.0 in 640.0 W/m2 CLR
16:18 26.7 °F 6.7 °F 1014.1 in NNE 5.6 mph 5.6 mph 28 % 0.0 in 631.0 W/m2 CLR
16:23 27.2 °F 7.1 °F 1013.8 in NNW 5.6 mph 5.6 mph 28 % 0.0 in 621.0 W/m2 CLR
16:28 27.2 °F 7.1 °F 1013.8 in NNE 6.4 mph 6.4 mph 28 % 0.0 in 610.0 W/m2 CLR
16:33 27.2 °F 6.6 °F 1013.8 in North 4.8 mph 4.8 mph 27 % 0.0 in 598.0 W/m2 CLR
16:38 27.2 °F 6.6 °F 1013.8 in North 5.6 mph 5.6 mph 27 % 0.0 in 585.0 W/m2 CLR
16:43 27.8 °F 7.1 °F 1013.4 in NNE 5.6 mph 5.6 mph 27 % 0.0 in 575.0 W/m2 CLR
16:48 27.2 °F 6.1 °F 1013.4 in NE 4.8 mph 4.8 mph 26 % 0.0 in 563.0 W/m2 CLR
16:53 27.8 °F 6.5 °F 1013.4 in NE 5.6 mph 5.6 mph 26 % 0.0 in 545.0 W/m2 CLR
16:58 27.8 °F 5.9 °F 1013.1 in Calm     25 % 0.0 in 534.0 W/m2 CLR
17:03 27.8 °F 6.5 °F 1013.1 in Calm     26 % 0.0 in 517.0 W/m2 CLR
17:08 27.8 °F 5.9 °F 1013.1 in North 1.9 mph   25 % 0.0 in 506.0 W/m2 CLR
17:13 27.8 °F 6.5 °F 1013.1 in Calm     26 % 0.0 in 490.0 W/m2 CLR
17:18 27.8 °F 6.5 °F 1013.1 in North 5.6 mph 5.6 mph 26 % 0.0 in 480.0 W/m2 CLR
17:23 27.8 °F 6.5 °F 1013.1 in Calm     26 % 0.0 in 462.0 W/m2 CLR
17:28 27.8 °F 6.5 °F 1012.8 in Calm     26 % 0.0 in 448.0 W/m2 CLR
17:33 27.8 °F 5.9 °F 1012.8 in North 6.4 mph 6.4 mph 25 % 0.0 in 431.0 W/m2 CLR
17:38 27.8 °F 5.3 °F 1012.8 in Calm     24 % 0.0 in 420.0 W/m2 CLR
17:43 27.8 °F 5.9 °F 1012.8 in Calm     25 % 0.0 in 404.0 W/m2 CLR
17:48 28.3 °F 6.4 °F 1012.4 in Calm     25 % 0.0 in 387.0 W/m2 CLR
17:53 28.3 °F 7.0 °F 1012.4 in Calm     26 % 0.0 in 367.0 W/m2 CLR
17:58 27.8 °F 5.9 °F 1012.4 in Calm     25 % 0.0 in 352.0 W/m2 CLR
18:03 28.3 °F 6.4 °F 1012.4 in Calm     25 % 0.0 in 334.0 W/m2 CLR
18:08 27.8 °F 5.9 °F 1012.4 in Calm     25 % 0.0 in 320.0 W/m2 CLR
18:13 27.8 °F 5.9 °F 1012.4 in Calm     25 % 0.0 in 306.0 W/m2 CLR
18:18 27.2 °F 4.9 °F 1012.4 in ENE 7.4 mph 7.4 mph 24 % 0.0 in 294.0 W/m2 CLR
18:23 27.2 °F 4.9 °F 1012.4 in Calm     24 % 0.0 in 272.0 W/m2 CLR
18:27 27.2 °F 4.9 °F 1012.1 in ENE 1.6 mph 1.6 mph 24 % 0.0 in 264.0 W/m2 CLR
18:32 27.2 °F 4.9 °F 1012.1 in NNE 6.4 mph 6.4 mph 24 % 0.0 in 251.0 W/m2 CLR
18:37 26.7 °F 4.4 °F 1012.1 in Calm     24 % 0.0 in 232.0 W/m2 CLR
18:42 26.7 °F 5.0 °F 1012.1 in Calm     25 % 0.0 in 216.0 W/m2 CLR
18:47 26.7 °F 4.4 °F 1012.1 in Calm     24 % 0.0 in 202.0 W/m2 CLR
18:52 26.1 °F 3.3 °F 1011.7 in Calm     23 % 0.0 in 185.0 W/m2 CLR
18:57 25.6 °F 2.9 °F 1011.7 in Calm     23 % 0.0 in 171.0 W/m2 CLR
19:02 25.6 °F 3.5 °F 1011.7 in Calm     24 % 0.0 in 156.0 W/m2 CLR
19:07 25.0 °F 3.0 °F 1011.7 in Calm     24 % 0.0 in 141.0 W/m2 CLR
19:12 24.4 °F 2.6 °F 1011.7 in Calm     24 % 0.0 in 127.0 W/m2 CLR
19:18 23.9 °F 2.1 °F 1011.7 in Calm     24 % 0.0 in 113.0 W/m2 CLR
19:23 23.9 °F 2.7 °F 1011.7 in Calm     25 % 0.0 in 100.0 W/m2 CLR
19:28 23.3 °F 1.6 °F 1011.7 in Calm     24 % 0.0 in 88.0 W/m2 CLR
19:33 22.8 °F 1.2 °F 1011.4 in North 1.9 mph   24 % 0.0 in 74.0 W/m2 FEW
19:38 22.2 °F 2.3 °F 1011.4 in NNE 5.6 mph 5.6 mph 27 % 0.0 in 56.0 W/m2 SCT
19:43 22.2 °F 3.3 °F 1011.4 in NE 7.4 mph 7.4 mph 29 % 0.0 in 49.0 W/m2 SCT
19:48 21.7 °F 3.3 °F 1011.4 in NE 5.6 mph 5.6 mph 30 % 0.0 in 42.0 W/m2 BKN
19:53 21.7 °F 3.8 °F 1011.4 in NE 1.6 mph   31 % 0.0 in 35.0 W/m2 BKN
19:58 21.1 °F 4.2 °F 1011.4 in ENE 3.7 mph 3.7 mph 33 % 0.0 in 26.0 W/m2 BKN
20:03 20.6 °F 4.1 °F 1011.4 in NE 1.6 mph 3.1 mph 34 % 0.0 in 21.0 W/m2 BKN
20:08 20.6 °F 5.3 °F 1011.4 in ENE 3.7 mph 3.7 mph 37 % 0.0 in 16.0 W/m2 BKN
20:13 20.0 °F 5.2 °F 1011.4 in East 3.7 mph 3.7 mph 38 % 0.0 in 11.0 W/m2 BKN
20:18 20.0 °F 5.6 °F 1011.4 in Calm     39 % 0.0 in 7.0 W/m2 BKN
20:23 19.4 °F 5.5 °F 1011.4 in East 6.4 mph 6.4 mph 40 % 0.0 in 0.0 W/m2 OVC
20:28 19.4 °F 5.8 °F 1011.1 in ENE 5.6 mph 5.6 mph 41 % 0.0 in 0.0 W/m2 OVC
20:33 19.4 °F 6.2 °F 1011.1 in Calm     42 % 0.0 in 0.0 W/m2 CLR
20:38 18.9 °F 6.1 °F 1011.1 in East 9.3 mph 9.3 mph 43 % 0.0 in 0.0 W/m2 CLR
20:43 18.9 °F 7.0 °F 1011.1 in Calm     46 % 0.0 in 0.0 W/m2 CLR
20:48 18.9 °F 7.0 °F 1011.1 in Calm     46 % 0.0 in 0.0 W/m2 CLR
20:53 18.9 °F 7.0 °F 1011.1 in ESE 1.9 mph   46 % 0.0 in 0.0 W/m2 CLR
20:58 18.9 °F 8.2 °F 1011.1 in East 14.8 mph 14.8 mph 50 % 0.0 in 0.0 W/m2 CLR
21:03 18.9 °F 8.5 °F 1011.1 in ENE 7.4 mph 7.4 mph 51 % 0.0 in 0.0 W/m2 CLR
21:08 18.9 °F 8.8 °F 1011.1 in East 12.9 mph 12.9 mph 52 % 0.0 in 0.0 W/m2 CLR
21:13 18.9 °F 9.4 °F 1011.4 in ENE 13.0 mph 13.0 mph 54 % 0.0 in 0.0 W/m2 CLR
21:18 18.3 °F 9.1 °F 1011.1 in East 11.3 mph 11.3 mph 55 % 0.0 in 0.0 W/m2 CLR
21:23 18.3 °F 9.1 °F 1011.1 in Calm     55 % 0.0 in 0.0 W/m2 CLR
21:28 18.3 °F 8.8 °F 1011.1 in Calm     54 % 0.0 in 0.0 W/m2 CLR
21:33 18.3 °F 9.1 °F 1011.1 in Calm     55 % 0.0 in 0.0 W/m2 CLR
21:38 18.9 °F 9.7 °F 1011.1 in Calm     55 % 0.0 in 0.0 W/m2 CLR
21:43 18.9 °F 9.9 °F 1011.1 in Calm     56 % 0.0 in 0.0 W/m2 CLR
21:48 18.3 °F 8.8 °F 1011.4 in Calm     54 % 0.0 in 0.0 W/m2 CLR
21:53 18.3 °F 8.0 °F 1011.4 in Calm     51 % 0.0 in 0.0 W/m2 CLR
21:58 17.8 °F 8.3 °F 1011.4 in Calm     54 % 0.0 in 0.0 W/m2 CLR
22:04 18.3 °F 9.1 °F 1011.4 in Calm     55 % 0.0 in 0.0 W/m2 CLR
22:09 18.3 °F 9.1 °F 1011.1 in Calm     55 % 0.0 in 0.0 W/m2 CLR
22:14 18.9 °F 9.9 °F 1011.4 in Calm     56 % 0.0 in 0.0 W/m2 CLR
22:19 18.3 °F 10.4 °F 1011.4 in Calm     60 % 0.0 in 0.0 W/m2 CLR
22:24 18.3 °F 10.2 °F 1011.4 in Calm     59 % 0.0 in 0.0 W/m2 CLR
22:29 18.3 °F 9.9 °F 1011.4 in Calm     58 % 0.0 in 0.0 W/m2 CLR
22:34 18.3 °F 10.4 °F 1011.4 in Calm     60 % 0.0 in 0.0 W/m2 CLR
22:39 17.8 °F 11.1 °F 1011.4 in Calm     65 % 0.0 in 0.0 W/m2 CLR
22:44 17.2 °F 10.6 °F 1011.4 in Calm     65 % 0.0 in 0.0 W/m2 CLR
22:49 17.2 °F 10.1 °F 1011.4 in NW 7.4 mph 7.4 mph 63 % 0.0 in 0.0 W/m2 CLR
22:54 16.7 °F 10.1 °F 1011.4 in NW 5.6 mph 5.6 mph 65 % 0.0 in 0.0 W/m2 CLR
22:59 16.1 °F 9.5 °F 1011.4 in Calm     65 % 0.0 in 0.0 W/m2 CLR
23:04 16.1 °F 9.5 °F 1011.4 in Calm     65 % 0.0 in 0.0 W/m2 CLR
23:09 16.1 °F 9.8 °F 1011.4 in Calm     66 % 0.0 in 0.0 W/m2 CLR
23:14 15.6 °F 9.7 °F 1011.4 in Calm     68 % 0.0 in 0.0 W/m2 CLR
23:19 15.6 °F 9.4 °F 1011.4 in Calm     67 % 0.0 in 0.0 W/m2 CLR
23:24 15.6 °F 9.2 °F 1011.1 in Calm     66 % 0.0 in 0.0 W/m2 CLR
23:29 15.6 °F 9.4 °F 1011.1 in Calm     67 % 0.0 in 0.0 W/m2 CLR
23:34 15.6 °F 9.7 °F 1011.1 in Calm     68 % 0.0 in 0.0 W/m2 CLR
23:40 15.6 °F 9.7 °F 1010.7 in Calm     68 % 0.0 in 0.0 W/m2 CLR
23:45 15.6 °F 9.9 °F 1010.7 in Calm     69 % 0.0 in 0.0 W/m2 CLR
23:50 15.6 °F 10.3 °F 1010.7 in Calm     71 % 0.0 in 0.0 W/m2 CLR
23:55 15.0 °F 10.2 °F 1010.7 in Calm   0.2 mph 73 % 0.0 in 0.0 W/m2 CLR
Lo Temps de Massalio
Compliments of Weather Underground - 1.25 mb